Preview of NWS' New Version of Forecast
This preview is not operational and should not be used for support decisions.
Latest weather observations around

Magma FRS (MAMF)

Using International System of Units (Switch to English Units)
Date/ Time (MST) Wind (kph) Vis. (km) Weather Sky Cond. Temp (°C) Rel. Humidity Wind Chill (°C) Heat Index (°C) Pressure Precip. (cm)
Air Dwpt 6 hour Altimeter (hPa) Sea level (hPa) 1 hr 3 hr 6 hr
Max Min
Aug 23 11:14 Calm   Clear   33 12     29%   32          
Aug 23 10:59 S 2   Clear   32 12     29%   31          
Aug 23 10:44 SSW 2   Clear   32 13     31%   31          
Aug 23 10:29 SW 2   Clear   33 13     29%   32          
Aug 23 10:14 W 8   Clear   32 13     31%   31          
Aug 23 09:59 SSW 10   Clear   31        %              
Aug 23 09:44 SSW 13   Clear   31 14     35%   30          
Aug 23 09:29 SSW 13   Clear   31 13     34%   30          
Aug 23 09:14 SSW 11   Clear   30 13     35%   29          
Aug 23 08:59 SSW 6   Clear   31 13     35%   30          
Aug 23 08:44 Calm   Clear   30 14     37%   29          
Aug 23 08:29 Calm   Clear   29 14     39%   29          
Aug 23 08:14 Calm   Clear   28 14     42%   28          
Aug 23 07:59 SSW 2   Clear   28 15     43%   28          
Aug 23 07:44 S 3   Clear   28 15     45%   28          
Aug 23 07:29 SSW 2   Clear   27 15     47%   27          
Aug 23 07:14 SSE 5   Clear   27 15     49%   27          
Aug 23 06:59 S 10   Clear   26 15     53%   26          
Aug 23 06:44 WSW 2   Clear   24 15     57%   24          
Aug 23 06:29 Calm   Clear   24 16     59%   24          
Aug 23 06:14 Calm   Clear   24 15     56%   24          
Aug 23 05:59 Calm   Clear   25 14     50%   25          
Aug 23 05:44 Calm   Clear   26 14     50%   25          
Aug 23 05:29 Calm   Clear   26 14     49%   25          
Aug 23 05:14 Calm   Clear   25 14     50%   25          
Aug 23 04:59 Calm   Clear   25 14     51%   25          
Aug 23 04:44 Calm   Clear   26 15     49%   26          
Aug 23 04:29 Calm   Clear   26 15     50%   26          
Aug 23 04:14 Calm   Clear   26 14     50%   25          
Aug 23 03:59 Calm   Clear   26 15     52%   26          
Aug 23 03:44 Calm   Clear   26 15     52%   26          
Aug 23 03:29 Calm   Clear   26 15     52%   26          
Aug 23 03:14 Calm   Clear   27 15     50%   27          
Aug 23 02:59 Calm   Clear   27 15     50%   27          
Aug 23 02:44 Calm   Clear   27 15     49%   27          
Aug 23 02:29 Calm   Clear   27 15     50%   27          
Aug 23 02:14 ESE 5   Clear   27 15     50%   27          
Aug 23 01:59 ESE 11   Clear   27 16     51%   27          
Aug 23 01:44 ESE 14   Clear   27 16     53%   27          
Aug 23 01:29 SE 11   Clear   27 15     48%   27          
Aug 23 01:14 SE 2   Clear   28 15     46%   28          
Aug 23 00:59 SSE 6   Clear   28 15     46%   28          
Aug 23 00:44 NE 3   Clear   27 16     49%   28          
Aug 23 00:29 SE 14   Clear   28 16     48%   28          
Aug 23 00:14 SSE 23   Clear   27 15     48%   27          
Aug 22 23:59 S 24   Clear   28 15     44%   28          
Aug 22 23:44 SSE 26   Clear   28 15     43%   28          
Aug 22 23:29 SW 14   Clear   29 16     46%   29          
Aug 22 23:14 S 10   Clear   30 15     40%   30          
Aug 22 22:59 SE 6   Clear   31 15     38%   30          
Aug 22 22:44 S 10   Clear   30 15     40%   30          
Aug 22 22:29 SSW 19   Clear   30 16     42%   30          
Aug 22 22:14 SSW 19   Clear   31 15     40%   30          
Notice The following observation data may not be complete
Aug 22 21:59 SSE 21   Clear     14      %              
Notice The following observation data may not be complete
Aug 22 21:44 SSE 26   Clear     14      %              
Notice The following observation data may not be complete
Aug 22 21:29 SSE 29   Clear     14      %              
Aug 22 21:14 Calm   Clear   34 11     25%   32          
Aug 22 20:59 Calm   Clear   34 12     27%   33          
Aug 22 20:44 Calm   Clear   33 12     27%   32          
Aug 22 20:29 Calm   Clear   34 10     22%   33          
Aug 22 20:14 Calm   Clear   34 10     22%   33          
Aug 22 19:59 Calm   Clear   36 10     21%   34          
Aug 22 19:44 Calm   Clear   36 9     19%   34          
Aug 22 19:29 Calm   Clear   37 9     19%   35          
Aug 22 19:14 Calm   Clear   36 10     21%   34          
Aug 22 18:59 Calm   Clear   37 10     20%   35          
Aug 22 18:44 Calm   Clear   37 11     21%   35          
Aug 22 18:29 Calm   Clear   37 11     21%   35          
Aug 22 18:14 Calm   Clear   38 9     17%   36          
Aug 22 17:59 Calm   Clear   37 9     18%   35          
Aug 22 17:44 Calm   Clear   37 9     18%   35          
Aug 22 17:29 NW 5   Clear   38 9     18%   36          
Aug 22 17:14 WNW 2   Clear   38 9     17%   36          
Aug 22 16:59 WNW 2   Clear   38 9     17%   36          
Aug 22 16:44 WNW 3   Clear   39 9     17%   37          
Aug 22 16:29 Calm   Clear   40 7     14%   38          
Aug 22 16:14 NW 2   Clear   39 8     15%   37          
Aug 22 15:59 Calm   Clear   39        %              
Aug 22 15:44 NNW 8   Clear   39 7     14%   37          
Aug 22 15:29 S 3   Clear   40 6     13%   38          
Aug 22 15:14 S 8   Clear   39        %              
Aug 22 14:59 W 6   Clear   39        %              
Aug 22 14:44 NW 3   Clear   39 8     15%   37          
Aug 22 14:29 Calm   Clear   38 9     17%   36          
Aug 22 14:14 WSW 2   Clear   39        %              
Aug 22 13:59 Calm   Clear   38 7     15%   36          
Aug 22 13:44 NW 5   Clear   38 8     16%   36          
Aug 22 13:29 NNW 2   Clear   38        %              
Aug 22 13:14 NW 2   Clear   37 10     19%   35          
Aug 22 12:59 Calm   Clear   38 10     19%   36          
Aug 22 12:44 WNW 3   Clear   37 12     22%   36          
Aug 22 12:29 SW 2   Clear   37 11     21%   35          
Aug 22 12:14 Calm   Clear   36 11     22%   35          
Aug 22 11:59 W 2   Clear   36 12     23%   35          
Aug 22 11:44 SE 3   Clear   37 11     22%   35          
Aug 22 11:29 W 6   Clear   36 12     23%   35          
Aug 22 11:14 SSW 8   Clear   35 11     24%   34          
Aug 22 10:59 SSW 6   Clear   35 11     24%   34          
Aug 22 10:44 SSW 6   Clear   34 12     26%   33          
Aug 22 10:29 SW 6   Clear   34 13     27%   33          
Aug 22 10:14 S 10   Clear   34 13     27%   33          
Aug 22 09:59 SSE 10   Clear   34 13     28%   34          
Aug 22 09:44 S 10   Clear   34 13     29%   33          
Aug 22 09:29 S 18   Clear   33 13     29%   32          
Aug 22 09:14 SE 18   Clear   34 13     28%   33          
Aug 22 08:59 SE 19   Clear   33 13     29%   32          
Aug 22 08:44 SSE 23   Clear   32 12     30%   31          
Aug 22 08:29 SE 19   Clear   32 12     30%   31          
Aug 22 08:14 SSE 16   Clear   32 12     30%   30          
Aug 22 07:59 SE 14   Clear   32 11     29%   30          
Aug 22 07:44 SE 13   Clear   31 10     29%   29          
Aug 22 07:29 SE 11   Clear   30 11     30%   29          
Aug 22 07:14 SE 13   Clear   30 10     29%   29          
Aug 22 06:59 SE 13   Clear   29 9     29%   28          
Aug 22 06:44 SE 11   Clear   28 9     30%   27          
Aug 22 06:29 ESE 2   Clear   27 8     30%   27          
Aug 22 06:14 ESE 3   Clear   27 8     30%   27          
Aug 22 05:59 Calm   Clear   27 7     29%   26          
Aug 22 05:44 E 2   Clear   27 7     28%   26          
Aug 22 05:29 E 5   Clear   27 7     27%   26          
Aug 22 05:14 ESE 8   Clear   28 7     26%   27          
Aug 22 04:59 SE 6   Clear   28 6     25%   27          
Aug 22 04:44 SE 11   Clear   28 6     25%   27          
Aug 22 04:29 ESE 13   Clear   29 6     23%   27          
Aug 22 04:14 SE 13   Clear   29 6     23%   27          
Aug 22 03:59 SE 13   Clear   29 5     22%   27          
Aug 22 03:44 SSE 14   Clear   30 6     22%   28          
Aug 22 03:29 SE 10   Clear   28 3     20%   27          
Aug 22 03:14 SE 10   Clear   29 2     18%   27          
Aug 22 02:59 SE 11   Clear   28 1     17%   27          
Aug 22 02:44 ESE 10   Clear   29 0     15%   27          
Aug 22 02:29 ESE 11   Clear   30 -1     13%   28          
Aug 22 02:14 SE 11   Clear   30 1     15%   28          
Aug 22 01:59 SE 10   Clear   29 0     15%   28          
Aug 22 01:44 ESE 10   Clear   29 -5     11%   27          
Aug 22 01:29 SE 10   Clear   28        %              
Aug 22 01:14 Calm   Clear   28        %              
Aug 22 00:59 Calm   Clear   29        %              
Aug 22 00:44 Calm   Clear   29        %              
Aug 22 00:29 Calm   Clear   29        %              
Aug 22 00:14 Calm   Clear   29        %              
Aug 21 23:59 Calm   Clear   30        %              
Aug 21 23:44 Calm   Clear   30 -5     10%   28          
Aug 21 23:29 Calm   Clear   30 -5     10%   28          
Aug 21 23:14 Calm   Clear   31        %              
Aug 21 22:59 Calm   Clear   32        %              
Aug 21 22:44 Calm   Clear   34        %              
Aug 21 22:29 Calm   Clear   34        %              
Aug 21 22:14 Calm   Clear   32        %              
Aug 21 21:59 Calm   Clear   31        %              
Aug 21 21:44 Calm   Clear   30        %              
Aug 21 21:29 Calm   Clear   32        %              
Aug 21 21:14 Calm   Clear   32        %              
Aug 21 20:59 Calm   Clear   33        %              
Aug 21 20:44 Calm   Clear   33        %              
Aug 21 20:29 Calm   Clear   34        %              
Aug 21 20:14 Calm   Clear   35        %              
Aug 21 19:59 N 3   Clear   36        %              
Aug 21 19:44 NNW 3   Clear   36 -3     8%   33          
Aug 21 19:29 NW 3   Clear   37 -3     8%   33          
Aug 21 19:14 NW 3   Clear   38 -2     8%   34          
Aug 21 18:59 NNW 6   Clear   38 -1     9%   34          
Aug 21 18:44 NW 3   Clear   39 -3     7%   35          
Aug 21 18:29 NW 8   Clear   39 -1     8%   35          
Aug 21 18:14 NW 8   Clear   40 -1     8%   36          
Aug 21 17:59 WNW 8   Clear   39 1     9%   36          
Aug 21 17:44 WNW 13   Clear   41 2     9%   37          
Aug 21 17:29 NW 13   Clear   41 -2     7%   36          
Aug 21 17:14 WNW 18   Clear   41 -2     7%   36          
Aug 21 16:59 WNW 14   Clear   41 -2     7%   36          
Aug 21 16:44 NW 11   Clear   41        %              
Aug 21 16:29 W 11   Clear   41        %              
Aug 21 16:14 NW 13   Clear   41 0     8%   37          
Aug 21 15:59 WNW 13   Clear   41 2     9%   38          
Aug 21 15:44 NW 13   Clear   41        %              
Aug 21 15:29 NNW 11   Clear   42 2     9%   38          
Aug 21 15:14 NW 13   Clear   41 -2     7%   37          
Aug 21 14:59 WNW 8   Clear   41 0     8%   37          
Aug 21 14:44 WNW 11   Clear   41 0     8%   37          
Aug 21 14:29 NNW 10   Clear   41 0     8%   37          
Aug 21 14:14 WNW 8   Clear   42 1     8%   38          
Aug 21 13:59 W 3   Clear   41 7     13%   39          
Aug 21 13:44 WNW 6   Clear   40 4     11%   37          
Aug 21 13:29 SW 5   Clear   41        %              
Aug 21 13:14 WNW 5   Clear   40 1     9%   36          
Aug 21 12:59 SW 6   Clear   41        %              
Aug 21 12:44 SSW 10   Clear   40        %              
Aug 21 12:29 SW 6   Clear   42        %              
Aug 21 12:14 W 3   Clear   41        %              
Aug 21 11:59 SSW 3   Clear   41        %              
Aug 21 11:44 WSW 5   Clear   40        %              
Aug 21 11:29 S 3   Clear   39 2     10%   36          
Aug 21 11:14 SSE 3   Clear   39 2     10%   36          
Aug 21 10:59 SE 3   Clear   39 3     11%   36          
Aug 21 10:44 S 5   Clear   38 3     12%   35          
Aug 21 10:29 S 6   Clear   38 3     12%   35          
Aug 21 10:14 S 10   Clear   37 3     12%   34          
Aug 21 09:59 SSE 6   Clear   37 3     12%   34          
Aug 21 09:44 SSE 10   Clear   37 1     11%   34          
Aug 21 09:29 S 10   Clear   37 3     12%   34          
Aug 21 09:14 ESE 14   Clear   36 5     15%   33          
Aug 21 08:59 SE 16   Clear   36 4     14%   33          
Aug 21 08:44 SE 13   Clear   35 3     14%   33          
Aug 21 08:29 SE 5   Clear   34 3     14%   32          
Aug 21 08:14 Calm   Clear   33 3     15%   30          
Aug 21 07:59 Calm   Clear   31 3     17%   29          
Aug 21 07:44 Calm   Clear   30 2     17%   28          
Aug 21 07:29 Calm   Clear   28 3     21%   27          
Aug 21 07:14 Calm   Clear   26 3     22%   25          
Aug 21 06:59 Calm   Clear   26 3     23%   25          
Aug 21 06:44 Calm   Clear   27 3     22%   26          
Aug 21 06:29 Calm   Clear   26 3     22%   25          
Aug 21 06:14 Calm   Clear   27 3     21%   26          
Aug 21 05:59 Calm   Clear   26 3     22%   25          
Aug 21 05:44 Calm   Clear   27 2     20%   27          
Aug 21 05:29 Calm   Clear   27 3     21%   27          
Aug 21 05:14 Calm   Clear   27 3     21%   26          
Aug 21 04:59 Calm   Clear   27 2     20%   27          
Aug 21 04:44 Calm   Clear   27 2     20%   27          
Aug 21 04:29 ESE 3   Clear   27 2     20%   27          
Aug 21 04:14 Calm   Clear   26 3     22%   25          
Aug 21 03:59 Calm   Clear   27 2     20%   27          
Aug 21 03:44 Calm   Clear   27 2     20%   26          
Aug 21 03:29 Calm   Clear   28 2     19%   27          
Aug 21 03:14 Calm   Clear   28 2     19%   27          
Aug 21 02:59 Calm   Clear   28 2     19%   27          
Aug 21 02:44 ESE 8   Clear   28 2     19%   27          
Aug 21 02:29 ESE 3   Clear   28 2     19%   27          
Aug 21 02:14 Calm   Clear   28 2     18%   27          
Aug 21 01:59 Calm   Clear   29 2     18%   27          
Aug 21 01:44 Calm   Clear   29 2     18%   27          
Aug 21 01:29 Calm   Clear   31 1     15%   29          
Aug 21 01:14 Calm   Clear   30 1     16%   28          
Aug 21 00:59 Calm   Clear   29 1     17%   27          
Aug 21 00:44 Calm   Clear   29 2     18%   27          
Aug 21 00:29 Calm   Clear   29 2     17%   28          
Aug 21 00:14 Calm   Clear   30 1     16%   28          
Aug 20 23:59 N 2   Clear   31 2     16%   29          
Aug 20 23:44 Calm   Clear   31 2     16%   29          
Aug 20 23:29 Calm   Clear   30 2     17%   28          
Aug 20 23:14 Calm   Clear   30 1     16%   28          
Aug 20 22:59 Calm   Clear   31 2     16%   29          
Aug 20 22:44 Calm   Clear   31 2     16%   29          
Aug 20 22:29 Calm   Clear   31 1     15%   29          
Aug 20 22:14 Calm   Clear   31        %              
Aug 20 21:59 Calm   Clear   31        %              
Aug 20 21:44 Calm   Clear   31        %              
Aug 20 21:29 Calm   Clear   32 2     15%   30          
Aug 20 21:14 Calm   Clear   33 2     14%   31          
Aug 20 20:59 Calm   Clear   34 3     14%   31          
Aug 20 20:44 NNW 2   Clear   34 2     13%   32          
Aug 20 20:29 Calm   Clear   34 2     13%   32          
Aug 20 20:14 Calm   Clear   35 2     13%   32          
Aug 20 19:59 Calm   Clear   36 3     13%   33          
Aug 20 19:44 Calm   Clear   36 2     12%   33          
Aug 20 19:29 Calm   Clear   37 3     12%   34          
Aug 20 19:14 Calm   Clear   38 3     12%   35          
Aug 20 18:59 Calm   Clear   38 5     13%   35          
Aug 20 18:44 WNW 3   Clear   39 2     10%   36          
Aug 20 18:29 NW 5   Clear   38 4     12%   36          
Aug 20 18:14 NW 3   Clear   39 4     11%   36          
Aug 20 17:59 WNW 10   Clear   39 2     10%   36          
Aug 20 17:44 NW 10   Clear   40 3     10%   37          
Aug 20 17:29 NW 8   Clear   40 4     11%   37          
Aug 20 17:14 Calm   Clear   41 2     9%   37          
Aug 20 16:59 NNW 6   Clear   41        %              
Aug 20 16:44 NW 6   Clear   40 7     14%   38          
Aug 20 16:29 WNW 8   Clear   40 6     13%   38          
Aug 20 16:14 NW 10   Clear   40 3     10%   37          
Aug 20 15:59 WNW 11   Clear   41 4     11%   38          
Aug 20 15:44 WNW 10   Clear   40 6     13%   38          
Aug 20 15:29 NNW 10   Clear   40 3     10%   37          
Aug 20 15:14 NW 6   Clear   41 4     11%   38          
Aug 20 14:59 WNW 8   Clear   41 3     10%   37          
Aug 20 14:44 NW 6   Clear   41 3     10%   37          
Aug 20 14:29 WSW 5   Clear   41 0     8%   37          
Aug 20 14:14 NW 3   Clear   40        %              
Aug 20 13:59 NW 6   Clear   39        %              
Aug 20 13:44 NW 6   Clear   40        %              
Aug 20 13:29 WNW 6   Clear   40        %              
Aug 20 13:14 W 3   Clear   39        %              
Aug 20 12:59 SSW 3   Clear   40        %              
Aug 20 12:44 SW 2   Clear   39        %              
Aug 20 12:29 S 2   Clear   39 -3     7%   35          
Notice The following observation data may not be complete
Aug 20 12:14 Calm   Clear     -2      %              
Aug 20 11:59 Calm   Clear   39        %              
Aug 20 11:44 Calm   Clear   38        %              
Aug 20 11:29 Calm   Clear   37        %              
Aug 20 11:14 Calm   Clear   36        %              
May 15 11:29 N 3   Clear   30 0     14%   28          
Notice The following observation data may not be complete
May 15 10:14     Clear            %              
May 15 09:14 N 2   Clear   27 -1     16%   26          
Notice The following observation data may not be complete
May 15 04:59     Clear            %              
May 15 04:29 Calm   Clear   18 -5     20%              
May 15 00:44 N 3   Clear   22 -3     19%   21          
May 14 19:29 N 3   Clear   29 3     19%   27          
May 14 17:59     Clear   33 1     13%   30          
Notice The following observation data may not be complete
May 14 12:14     Clear            %              
May 14 09:14 N 10   Clear   26 -5     13%   25          
May 14 06:44 Calm   Clear   19 -6     18%              
Notice The following observation data may not be complete
May 14 05:59     Clear            %              
May 14 04:29 Calm   Clear   16 -8     18%              
Notice The following observation data may not be complete
May 14 00:59     Clear            %              
May 13 21:29 N 14   Clear   24 -6     13%   23          
May 13 12:14     Clear   27 1     18%   26          
May 13 10:29     Clear   25 0     19%   24          
May 13 06:29 Calm   Clear   17 -2     27%              
May 12 23:29     Clear   21 0     24%              
May 12 17:14     Clear   31 4     19%   29          
May 12 02:29 Calm   Clear   21 3     31%              
May 12 01:14 Calm   Clear   24 3     25%   23          
Notice The following observation data may not be complete
May 11 20:14     Clear            %              
May 11 19:29     Clear   32 0     13%   30          
May 11 19:14     Clear   32 2     15%   30          
Notice The following observation data may not be complete
Jun 12 06:44 Calm   Clear     1      %              
Jun 12 04:59 Calm   Clear   20 1     28%              
Jun 12 02:14 S 8   Clear   24 1     23%   23          
Jun 12 01:59 S 8   Clear   24 1     23%   23          
Jun 11 23:29 SSW 8   Clear   26 0     18%   25          
Jun 11 21:29 Calm   Clear   28 3     20%   27          
Jun 11 20:44 Calm   Clear   29 1     16%   27          
Jun 11 17:14 SW 21   Clear   34 2     13%   31          
Jun 11 16:59 SSW 6   Clear   34 0     11%   32          
Jun 11 15:29     Clear   34 0     11%   32          
Jun 11 13:44 Calm   Clear   33 -2     10%   31          
Jun 10 16:59 SW 13   Clear   34 -5     8%   31          
Jun 10 13:14 WSW 6   Clear   33 -2     11%   30          
Jun 09 16:14 Calm   Clear   36 1     11%   33          
Jun 09 10:44 Calm   Clear   33 1     13%   30          
Jun 09 08:14 SE 6   Clear   29 0     15%   28          
Jun 09 03:44 Calm   Clear   27 0     17%   26          
Jun 08 17:14 NW 16   Clear   34 0     11%   32          
Notice The following observation data may not be complete
Jun 08 16:29 Calm   Clear     -3      %              
Notice The following observation data may not be complete
Jun 08 14:14 NW 10   Clear     -3      %              
Notice The following observation data may not be complete
Jun 08 13:14 Calm   Clear     -5      %              
Jun 08 10:59 Calm   Clear   33 -4     9%   30          
Jun 08 07:44 Calm   Clear   29        %              
Jun 07 12:29 Calm   Clear   33 2     14%   31          
Jun 07 11:29 Calm   Clear   32 2     15%   30          
Jun 07 08:14 Calm   Clear   29 3     19%   27          
Jun 07 07:14 Calm   Clear   27 2     20%   27          
Jun 06 11:59 Calm   Clear   33 3     15%   30          
Jun 06 08:29 SSW 2   Clear   31 3     17%   29          
Jun 06 05:44 Calm   Clear   26 3     23%   25          
Jun 05 19:14 NNW 2   Clear   34 5     16%   32          
Notice The following observation data may not be complete
Jun 05 17:44 N 6   Clear     4      %              
Jun 05 15:29 NW 13   Clear   36 3     13%   34          
Jun 05 15:14 NW 13   Clear   36 3     13%   34          
Jun 05 12:59 WSW 2   Clear   36 2     12%   33          
Notice The following observation data may not be complete
Jun 05 11:59 Calm   Clear     2      %